CW8593 Gava ES current weather conditions

sailwx.info

Wind from 214

Air temperature 25.0° C
Dewpoint 22.7° C

Last reported at 2016-Jul-30 22:52 UTC.
Time now 2016-Jul-31 00:22 UTC

Location: N 41°18' E 001°60'.
View on Google Maps.

See reports from other nearby stations

  
Tides and Currents Weather Stations Pressure Air Temp Water Temp Dewpoint Dewpoint Depression Visibility Wind Speed Wind Dir Waves Ship Positions
date/time (UTC)wind fromknots sea level pressurealtimeterstation pressurevisibilityair tempwater tempwave heightnotes
2016-Jul-30 22:52 214 25.0
2016-Jul-30 22:47 214 25.0
2016-Jul-30 22:37 214 0 gusting 1 25.0
2016-Jul-30 22:22 214 0 gusting 2 25.0
2016-Jul-30 22:02 214 25.0
2016-Jul-30 21:57 214 25.0
2016-Jul-30 21:52 214 25.0
2016-Jul-30 21:47 214 25.0
2016-Jul-30 21:37 214 25.0
2016-Jul-30 20:57 213 25.6
2016-Jul-30 20:42 213 26.1
2016-Jul-30 20:37 213 26.1
2016-Jul-30 20:32 213 26.1
2016-Jul-30 20:27 213 26.1
2016-Jul-30 20:17 213 26.1
2016-Jul-30 20:07 214 26.1
2016-Jul-30 20:02 213 26.1
2016-Jul-30 19:52 214 0 gusting 2 26.1
2016-Jul-30 19:37 213 1 gusting 4 26.1
2016-Jul-30 19:27 213 1 gusting 4 26.1
2016-Jul-30 19:22 213 1 gusting 4 26.1
2016-Jul-30 19:17 213 1 gusting 2 26.1
2016-Jul-30 19:07 208 1 gusting 6 26.1
2016-Jul-30 19:02 200 4 gusting 6 26.1
2016-Jul-30 18:52 198 1 gusting 4 26.7
2016-Jul-30 18:47 194 2 gusting 6 26.7
2016-Jul-30 18:42 148 2 gusting 6 26.7
2016-Jul-30 18:37 215 4 gusting 11 26.7
2016-Jul-30 18:32 209 3 gusting 6 26.7
2016-Jul-30 18:27 193 1 gusting 6 26.7
2016-Jul-30 18:22 197 2 gusting 6 26.7
2016-Jul-30 18:12 213 5 gusting 7 27.2
2016-Jul-30 18:07 142 2 gusting 6 27.2
2016-Jul-30 17:57 202 4 gusting 10 27.2
2016-Jul-30 17:52 198 5 gusting 10 27.2
2016-Jul-30 17:32 183 5 gusting 8 27.2
2016-Jul-30 17:27 174 6 gusting 10 27.2
2016-Jul-30 17:22 161 5 gusting 10 27.8
2016-Jul-30 17:02 181 2 gusting 10 28.3
2016-Jul-30 16:57 170 4 gusting 7 27.8
2016-Jul-30 16:52 194 3 gusting 10 27.8
2016-Jul-30 16:47 180 6 gusting 12 28.3
2016-Jul-30 16:37 194 2 gusting 6 28.3
2016-Jul-30 16:32 163 6 gusting 12 28.3
2016-Jul-30 16:27 215 8 gusting 14 28.3
2016-Jul-30 16:22 196 5 gusting 13 28.3
2016-Jul-30 16:17 209 3 gusting 10 27.8
2016-Jul-30 16:12 194 7 gusting 15 27.8
2016-Jul-30 16:07 187 9 gusting 13 27.8
2016-Jul-30 16:02 169 5 gusting 10 27.8
2016-Jul-30 15:57 191 7 gusting 13 27.8
2016-Jul-30 15:52 200 6 gusting 12 27.8
2016-Jul-30 15:37 174 5 gusting 11 28.3
2016-Jul-30 15:27 180 6 gusting 15 27.8
2016-Jul-30 15:22 187 7 gusting 15 28.3
2016-Jul-30 15:17 192 3 gusting 12 28.3
2016-Jul-30 14:57 197 6 gusting 13 27.8
2016-Jul-30 14:47 200 9 gusting 13 27.8
2016-Jul-30 14:42 192 6 gusting 13 28.3
2016-Jul-30 14:37 174 6 gusting 13 28.3
2016-Jul-30 14:32 187 7 gusting 13 28.3
2016-Jul-30 14:22 183 7 gusting 13 28.3
2016-Jul-30 14:12 161 4 gusting 10 28.3
2016-Jul-30 14:07 188 8 gusting 11 28.3
2016-Jul-30 13:57 178 6 gusting 12 28.3
2016-Jul-30 13:47 149 6 gusting 12 28.3
2016-Jul-30 13:42 173 5 gusting 11 28.3
2016-Jul-30 13:37 184 5 gusting 13 28.3
2016-Jul-30 13:32 185 6 gusting 12 28.3
2016-Jul-30 13:27 169 6 gusting 15 27.8
2016-Jul-30 13:17 169 8 gusting 18 28.3
2016-Jul-30 13:07 191 9 gusting 13 28.3
2016-Jul-30 12:57 226 7 gusting 17 28.3
2016-Jul-30 12:47 171 6 gusting 13 28.3
2016-Jul-30 12:42 200 5 gusting 13 27.8
2016-Jul-30 12:37 192 10 gusting 17 27.8
2016-Jul-30 12:32 182 5 gusting 12 28.3
2016-Jul-30 12:27 178 7 gusting 15 28.3
2016-Jul-30 12:22 179 5 gusting 12 28.9
2016-Jul-30 12:12 172 6 gusting 12 28.3
2016-Jul-30 12:07 193 7 gusting 13 28.3
2016-Jul-30 11:57 176 8 gusting 18 28.3
2016-Jul-30 11:47 187 6 gusting 13 28.3
2016-Jul-30 11:42 176 6 gusting 12 28.3
2016-Jul-30 11:37 184 6 gusting 13 28.3
2016-Jul-30 11:32 182 7 gusting 13 28.3
2016-Jul-30 11:27 184 7 gusting 15 28.3
2016-Jul-30 11:22 204 7 gusting 14 27.8
2016-Jul-30 11:17 186 7 gusting 15 27.8
2016-Jul-30 11:12 183 7 gusting 17 28.3
2016-Jul-30 11:07 177 6 gusting 13 28.3
2016-Jul-30 10:57 192 6 gusting 12 27.8
2016-Jul-30 10:42 187 4 gusting 14 27.8
2016-Jul-30 10:37 192 6 gusting 18 27.8
2016-Jul-30 10:27 195 5 gusting 14 28.3
2016-Jul-30 10:22 196 7 gusting 13 28.3
2016-Jul-30 10:17 167 6 gusting 15 27.8
2016-Jul-30 10:12 178 6 gusting 12 27.8
2016-Jul-30 10:02 186 7 gusting 14 27.8
2016-Jul-30 09:52 176 8 gusting 13 27.8
2016-Jul-30 09:22 176 8 gusting 13 27.8
2016-Jul-30 09:17 164 4 gusting 12 27.8
2016-Jul-30 09:12 192 5 gusting 10 27.8
2016-Jul-30 09:07 223 4 gusting 10 27.8
2016-Jul-30 09:02 202 6 gusting 12 27.2
2016-Jul-30 08:57 196 5 gusting 12 27.2
2016-Jul-30 08:47 179 6 gusting 11 27.2
2016-Jul-30 08:37 159 6 gusting 10 27.2
2016-Jul-30 08:27 180 4 gusting 6 27.2
2016-Jul-30 08:12 170 6 gusting 10 27.2
2016-Jul-30 08:02 183 4 gusting 8 27.2
2016-Jul-30 07:57 187 2 gusting 6 27.2
2016-Jul-30 07:47 157 4 gusting 10 27.2
2016-Jul-30 07:37 195 2 gusting 6 27.2
2016-Jul-30 07:27 186 3 gusting 6 26.7
2016-Jul-30 07:22 148 4 gusting 10 26.7
2016-Jul-30 07:02 219 1 gusting 4 26.7
2016-Jul-30 06:52 244 26.1
2016-Jul-30 06:37 244 1 gusting 4 25.6
2016-Jul-30 06:32 245 0 gusting 4 25.6
2016-Jul-30 06:27 245 25.0
2016-Jul-30 06:17 247 24.4
2016-Jul-30 05:57 246 23.9
2016-Jul-30 05:52 246 23.9
2016-Jul-30 05:47 246 23.3
2016-Jul-30 05:42 246 23.3
2016-Jul-30 05:37 246 23.3
2016-Jul-30 05:22 246 0 gusting 2 23.3
2016-Jul-30 04:57 246 23.3
2016-Jul-30 04:52 246 23.3
2016-Jul-30 04:37 246 23.3
2016-Jul-30 04:27 246 23.3
2016-Jul-30 04:22 246 23.9
2016-Jul-30 04:17 246 23.9
2016-Jul-30 04:02 246 23.3
2016-Jul-30 03:57 246 23.3
2016-Jul-30 03:52 246 23.3
2016-Jul-30 03:47 246 23.3
2016-Jul-30 03:22 246 23.3
2016-Jul-30 03:12 246 23.3
2016-Jul-30 03:02 246 23.3
2016-Jul-30 02:57 246 23.3
2016-Jul-30 02:42 246 23.3
2016-Jul-30 02:32 246 23.3
2016-Jul-30 02:22 246 23.3
2016-Jul-30 02:17 246 23.9
2016-Jul-30 02:12 246 23.9
2016-Jul-30 02:07 246 23.9
2016-Jul-30 02:02 246 23.3
2016-Jul-30 01:42 246 23.9
2016-Jul-30 01:22 246 23.9
2016-Jul-30 01:12 246 23.9
2016-Jul-30 01:02 246 23.9
2016-Jul-30 00:57 246 23.9
2016-Jul-30 00:52 246 23.9
2016-Jul-30 00:47 246 23.9
2016-Jul-30 00:32 246 23.9
2016-Jul-30 00:27 246 23.9
2016-Jul-30 00:22 246 23.9
2016-Jul-30 00:12 246 23.9
2016-Jul-30 00:07 246 23.9
2016-Jul-29 23:57 246 23.9
2016-Jul-29 23:52 246 23.9
2016-Jul-29 23:42 246 23.9
2016-Jul-29 23:32 246 24.4
2016-Jul-29 23:27 246 24.4
2016-Jul-29 23:22 246 24.4
2016-Jul-29 23:17 246 24.4
2016-Jul-29 22:52 246 24.4
2016-Jul-29 22:47 246 24.4
2016-Jul-29 22:42 246 24.4
2016-Jul-29 22:37 246 24.4
2016-Jul-29 22:32 246 24.4
2016-Jul-29 21:57 246 24.4
2016-Jul-29 21:52 246 24.4
2016-Jul-29 21:47 246 24.4
2016-Jul-29 21:37 246 24.4
2016-Jul-29 21:32 246 0 gusting 2 24.4
2016-Jul-29 21:27 246 24.4
2016-Jul-29 21:22 246 24.4
2016-Jul-29 21:17 246 24.4
2016-Jul-29 21:12 245 24.4
2016-Jul-29 21:07 246 0 gusting 5 24.4
2016-Jul-29 21:02 245 2 gusting 5 24.4
2016-Jul-29 20:47 194 0 gusting 2 24.4
2016-Jul-29 20:37 194 0 gusting 2 25.0
2016-Jul-29 20:27 194 25.6
2016-Jul-29 20:17 194 25.6
2016-Jul-29 20:12 194 25.6
2016-Jul-29 19:57 194 25.6
2016-Jul-29 19:52 194 0 gusting 2 25.6
2016-Jul-29 19:47 194 26.1
2016-Jul-29 19:42 194 26.1
2016-Jul-29 19:37 194 0 gusting 2 26.1
2016-Jul-29 19:27 192 0 gusting 6 26.1
2016-Jul-29 19:22 189 0 gusting 5 26.1
2016-Jul-29 19:02 177 2 gusting 6 26.1
2016-Jul-29 18:42 180 4 gusting 7 26.7
2016-Jul-29 18:37 193 2 gusting 6 26.7
2016-Jul-29 18:22 186 5 gusting 10 26.7
2016-Jul-29 18:17 194 4 gusting 8 26.7
2016-Jul-29 18:12 190 6 gusting 13 26.7
2016-Jul-29 18:07 198 5 gusting 10 26.7
2016-Jul-29 17:57 183 5 gusting 8 27.2
2016-Jul-29 17:52 220 4 gusting 8 27.2
2016-Jul-29 17:47 187 3 gusting 10 26.7
2016-Jul-29 17:42 193 5 gusting 10 26.7
2016-Jul-29 17:37 187 6 gusting 11 26.7
2016-Jul-29 17:32 186 6 gusting 11 26.7
2016-Jul-29 17:27 197 7 gusting 12 27.2
2016-Jul-29 17:17 181 6 gusting 13 27.2
2016-Jul-29 17:07 175 8 gusting 13 27.2
2016-Jul-29 17:02 178 6 gusting 11 27.8
2016-Jul-29 16:47 188 6 gusting 11 27.8
2016-Jul-29 16:42 207 6 gusting 17 27.8
2016-Jul-29 16:32 178 5 gusting 11 27.8
2016-Jul-29 16:07 175 6 gusting 13 27.8
2016-Jul-29 16:02 206 8 gusting 13 27.8
2016-Jul-29 15:52 188 6 gusting 12 28.3
2016-Jul-29 15:47 202 7 gusting 13 28.3
2016-Jul-29 15:42 172 5 gusting 13 28.3
2016-Jul-29 15:32 186 9 gusting 18 28.3
2016-Jul-29 15:07 185 9 gusting 15 28.3
2016-Jul-29 14:47 193 9 gusting 13 27.8
2016-Jul-29 14:42 192 7 gusting 12 28.3
2016-Jul-29 14:32 218 4 gusting 8 28.3
2016-Jul-29 14:27 184 5 gusting 10 28.3
2016-Jul-29 14:22 205 7 gusting 12 28.3
2016-Jul-29 14:17 206 5 gusting 14 28.3
2016-Jul-29 14:07 169 6 gusting 15 28.3
2016-Jul-29 14:02 190 6 gusting 14 27.8
2016-Jul-29 13:57 193 10 gusting 15 27.8
2016-Jul-29 13:52 185 10 gusting 17 28.3
2016-Jul-29 13:47 203 2 gusting 12 28.3
2016-Jul-29 13:37 194 6 gusting 13 27.8
2016-Jul-29 13:32 192 8 gusting 17 27.8
2016-Jul-29 13:27 160 7 gusting 17 27.8
2016-Jul-29 13:17 144 7 gusting 13 28.3
2016-Jul-29 13:12 160 5 gusting 14 28.3
2016-Jul-29 13:07 174 6 gusting 14 28.3
2016-Jul-29 12:52 183 7 gusting 12 27.8
2016-Jul-29 12:47 221 9 gusting 15 27.8
2016-Jul-29 12:37 195 9 gusting 14 27.8
2016-Jul-29 12:32 155 6 gusting 13 27.8
2016-Jul-29 12:22 189 10 gusting 18 27.2
2016-Jul-29 12:17 193 8 gusting 13 27.2
2016-Jul-29 12:12 182 7 gusting 17 27.8
2016-Jul-29 11:52 199 5 gusting 11 27.8
2016-Jul-29 11:47 148 4 gusting 13 27.8
2016-Jul-29 11:42 209 7 gusting 13 27.2
2016-Jul-29 11:37 153 6 gusting 13 27.2
2016-Jul-29 11:12 212 6 gusting 13 27.2
2016-Jul-29 11:07 214 8 gusting 14 27.2
2016-Jul-29 10:52 182 8 gusting 13 27.2
2016-Jul-29 10:47 189 10 gusting 14 27.2
2016-Jul-29 10:37 194 8 gusting 13 27.2
2016-Jul-29 10:32 207 7 gusting 15 27.2
2016-Jul-29 10:22 184 5 gusting 17 27.2
2016-Jul-29 10:07 191 7 gusting 13 27.2
2016-Jul-29 09:57 189 5 gusting 12 27.2
2016-Jul-29 09:52 210 6 gusting 13 27.2
2016-Jul-29 09:47 207 6 gusting 13 27.2
2016-Jul-29 09:42 198 6 gusting 13 27.2
2016-Jul-29 09:37 196 5 gusting 10 27.2
2016-Jul-29 09:32 224 6 gusting 13 27.2
2016-Jul-29 09:22 212 6 gusting 10 27.2
2016-Jul-29 09:17 186 5 gusting 10 27.2
2016-Jul-29 09:12 189 8 gusting 12 26.7
2016-Jul-29 09:02 192 7 gusting 12 27.2
2016-Jul-29 08:47 151 5 gusting 8 26.7
2016-Jul-29 08:42 195 4 gusting 8 26.7
2016-Jul-29 08:32 151 5 gusting 13 26.7
2016-Jul-29 08:07 217 4 gusting 6 26.7
2016-Jul-29 07:52 199 4 gusting 7 26.7
2016-Jul-29 07:22 165 0 gusting 2 26.1
2016-Jul-29 07:07 211 0 gusting 2 25.6
2016-Jul-29 06:57 213 0 gusting 2 25.6
2016-Jul-29 06:42 213 25.0
2016-Jul-29 06:37 213 25.0
2016-Jul-29 06:27 213 24.4
2016-Jul-29 06:17 213 24.4
2016-Jul-29 06:12 213 24.4
2016-Jul-29 06:07 213 24.4
2016-Jul-29 05:52 213 23.9
2016-Jul-29 05:47 213 23.9
2016-Jul-29 05:42 213 23.3
2016-Jul-29 05:37 213 23.3
2016-Jul-29 05:27 213 23.3
2016-Jul-29 05:12 213 22.8
2016-Jul-29 05:07 213 22.8
2016-Jul-29 05:02 213 22.8
2016-Jul-29 04:57 213 22.8
2016-Jul-29 04:47 213 22.8
2016-Jul-29 04:42 213 22.8
2016-Jul-29 04:27 213 22.8
2016-Jul-29 04:22 213 22.8
2016-Jul-29 04:17 213 22.8
2016-Jul-29 04:02 213 22.8
2016-Jul-29 03:57 213 22.8
2016-Jul-29 03:47 213 22.8
2016-Jul-29 03:27 213 22.8
2016-Jul-29 03:22 213 23.3
2016-Jul-29 03:17 213 23.3
2016-Jul-29 03:12 213 23.3
2016-Jul-29 02:52 213 23.3
2016-Jul-29 02:47 213 23.3
2016-Jul-29 02:42 213 23.3
2016-Jul-29 02:37 213 23.3
2016-Jul-29 02:22 213 23.3
2016-Jul-29 02:17 213 23.3
2016-Jul-29 02:12 213 23.3
2016-Jul-29 02:07 213 23.3
2016-Jul-29 01:47 213 23.3
2016-Jul-29 01:37 213 23.3
2016-Jul-29 01:32 213 23.3
2016-Jul-29 01:27 213 23.3
2016-Jul-29 01:22 213 0 gusting 1 23.3
2016-Jul-29 01:17 213 23.3
2016-Jul-29 01:07 213 23.3
2016-Jul-29 00:57 213 0 gusting 1 23.3
2016-Jul-29 00:52 213 23.3
2016-Jul-29 00:47 213 23.3
2016-Jul-29 00:42 213 23.3
2016-Jul-29 00:37 213 23.3
2016-Jul-29 00:32 213 23.3
2016-Jul-29 00:27 213 23.3
2016-Jul-29 00:02 213 23.3